Wellington, FL

1:06 PM EST on February 13, 2016 (GMT -0500)
Indigo Weather | | Change Station
CLOSE
Current Station
Personal Weather Station
Location: Wellington, FL
Elevation: 23 ft
Nearby Weather Stations

Elev 23 ft 26.67 °N, 80.26 °W | Updated 13 minutes ago

Clear
Clear
73.8 °F
Feels Like 77 °F
N
3.0
Wind Variable Wind from NNW
Gusts 5.0 mph

Today
High -- | Low -- °F
--% Chance of Precip.
Yesterday
High -- | Low -- °F
Precip. -- in
Pressure 30.21 in
Visibility 10.0 miles
Clouds Scattered Clouds 3500 ft
Heat Index 77 °F
Dew Point 58 °F
Humidity 58%
Rainfall 0.00 in
Snow Depth Not available.
6:59 AM 6:11 PM
Waxing Crescent, 32% visible
METAR KPBI 131753Z 31010G16KT 10SM SCT035 23/12 A3021 RMK AO2 SLP228 T02330122 10233 20111 58016 $
Pressure 30.21 in
Visibility 10.0 miles
Clouds Scattered Clouds 3500 ft
Heat Index 77 °F
Dew Point 58 °F
Humidity 58%
Rainfall 0.00 in
Snow Depth Not available.
6:59 AM 6:11 PM
Waxing Crescent, 32% visible
METAR KPBI 131753Z 31010G16KT 10SM SCT035 23/12 A3021 RMK AO2 SLP228 T02330122 10233 20111 58016 $

10-Day Weather Forecast

Almanac

Astronomy

Feb. 13, 2016 Rise Set
Actual Time
Civil Twilight
Nautical Twilight
Astronomical Twilight
Moon
Length of Visible Light
Length of Day
Tomorrow will be .
, % of the Moon is Illuminated

Today's Extremes

State Highs State Lows

Community

WunderPhotos

Upload Photos

1,892,631 photos uploaded!

WunderBlog® & News

Nearby

Air Quality

  Air Quality AQ Index Pollutant
Not available.

Snow Depth

Station Depth Elevation

Earthquake Activity

City Distance Mag. Time & Date
Minimum magnitude displayed is 2.5.

Coastal Water Temperatures

Place Temperature

Stations

Nearby Weather Stations

Station Location Temp. Windchill Dew Point Humidity Wind Precip. Elev Updated Type
                   

Watches & Warnings

There are currently no watches in effect.